Time;durP1;ratioP1;P1;durP2;ratioP2;P2;SDS_P1;SDS_P2;PMS_P1;PMS_P2;Temp;Humidity;BMP_temperature;BMP_pressure;BME280_temperature;BME280_humidity;BME280_pressure;Samples;Min_cycle;Max_cycle;Signal;HPM_P1;HPM_P2
2024/04/22 16:12:50;;;;;;;10.27;4.93;;;;;;;;;;5242237;27;20003;-95
2024/04/22 16:15:15;;;;;;;63.85;27.73;;;;;;;;;;5245583;27;20264;-90
2024/04/22 16:17:41;;;;;;;30.08;13.93;;;;;;;;;;5246215;27;19999;-92
2024/04/22 16:20:06;;;;;;;11.55;6.05;;;;;;;;;;5246137;27;19999;-91
2024/04/22 16:22:32;;;;;;;34.17;17.23;;;;;;;;;;5246168;27;20077;-91
2024/04/22 16:24:57;;;;;;;4.53;2.78;;;;;;;;;;5246043;27;19999;-85
2024/04/22 16:27:23;;;;;;;17.10;6.13;;;;;;;;;;5246548;27;20078;-93
2024/04/22 16:29:48;;;;;;;6.28;3.28;;;;;;;;;;5246537;27;20046;-91
2024/04/22 16:32:14;;;;;;;2.90;1.40;;;;;;;;;;5245213;27;20333;-87
2024/04/22 16:34:39;;;;;;;3.67;1.95;;;;;;;;;;5245978;27;20003;-88
2024/04/22 16:37:06;;;;;;;3.80;2.00;;;;;;;;;;5246405;27;20003;-94
2024/04/22 16:39:33;;;;;;;17.90;6.28;;;;;;;;;;5244766;27;20038;-87
2024/04/22 16:41:59;;;;;;;6.63;3.15;;;;;;;;;;5245990;27;20007;-93
2024/04/22 16:44:24;;;;;;;23.48;14.25;;;;;;;;;;5246016;27;20003;-93
2024/04/22 16:46:50;;;;;;;6.40;4.75;;;;;;;;;;5243877;27;20454;-93
2024/04/22 16:49:16;;;;;;;4.15;2.35;;;;;;;;;;5246005;27;20011;-91
2024/04/22 16:51:43;;;;;;;1.90;1.48;;;;;;;;;;5245786;27;20335;-87
2024/04/22 16:54:09;;;;;;;5.07;3.00;;;;;;;;;;5246675;27;20102;-94
2024/04/22 16:56:35;;;;;;;13.40;4.43;;;;;;;;;;5246323;27;20003;-95
2024/04/22 16:59:00;;;;;;;7.47;3.30;;;;;;;;;;5246453;27;20010;-94
2024/04/22 17:01:26;;;;;;;1.98;1.83;;;;;;;;;;5246728;27;20387;-96
2024/04/22 17:03:51;;;;;;;5.68;1.70;;;;;;;;;;5246250;27;20018;-92
2024/04/22 17:06:17;;;;;;;1.65;1.50;;;;;;;;;;5253941;27;20334;-88
2024/04/22 17:08:48;;;;;;;2.70;2.50;;;;;;;;;;5291916;22;20019;-83
2024/04/22 17:11:28;;;;;;;2.15;1.92;;;;;;;;;;5222992;27;20004;-90
2024/04/22 17:13:54;;;;;;;2.05;1.85;;;;;;;;;;5238099;27;20010;-92
2024/04/22 17:16:21;;;;;;;2.83;2.38;;;;;;;;;;5239133;27;20007;-96
2024/04/22 17:18:46;;;;;;;2.42;2.20;;;;;;;;;;5249607;27;20014;-94
2024/04/22 17:21:12;;;;;;;1.88;1.42;;;;;;;;;;5246945;27;19999;-90
2024/04/22 17:23:38;;;;;;;2.55;1.75;;;;;;;;;;5246581;27;19999;-95
2024/04/22 17:26:03;;;;;;;1.88;1.77;;;;;;;;;;5246437;27;20485;-96
2024/04/22 17:28:30;;;;;;;1.80;1.70;;;;;;;;;;5246991;27;20010;-94
2024/04/22 17:30:57;;;;;;;1.98;1.77;;;;;;;;;;5250463;27;20001;-87
2024/04/22 17:33:22;;;;;;;1.55;1.45;;;;;;;;;;5247258;27;20011;-87
2024/04/22 17:35:49;;;;;;;1.75;1.65;;;;;;;;;;5244342;27;19999;-91
2024/04/22 17:38:14;;;;;;;1.60;1.50;;;;;;;;;;5246576;27;20010;-89
2024/04/22 17:40:40;;;;;;;3.78;3.47;;;;;;;;;;5245503;27;20015;-89
2024/04/22 17:43:06;;;;;;;4.70;2.60;;;;;;;;;;5233883;27;20022;-91
2024/04/22 17:45:31;;;;;;;2.28;2.08;;;;;;;;;;5225956;27;20004;-93
2024/04/22 17:48:00;;;;;;;2.10;1.90;;;;;;;;;;5221491;27;20044;-90
2024/04/22 17:50:27;;;;;;;1.63;1.52;;;;;;;;;;5220425;27;20000;-96
2024/04/22 17:52:54;;;;;;;1.40;1.30;;;;;;;;;;5223608;27;20075;-95
2024/04/22 17:55:23;;;;;;;2.88;1.52;;;;;;;;;;5231284;27;20003;-96
2024/04/22 17:57:53;;;;;;;1.98;1.75;;;;;;;;;;5242188;22;20018;-94
2024/04/22 18:00:24;;;;;;;4.22;1.42;;;;;;;;;;5219383;27;20036;-95
2024/04/22 18:02:49;;;;;;;1.20;1.10;;;;;;;;;;5216311;27;20006;-94
2024/04/22 18:05:15;;;;;;;1.35;1.25;;;;;;;;;;5215771;27;20003;-88
2024/04/22 18:07:40;;;;;;;1.73;1.63;;;;;;;;;;5216384;27;20004;-95
2024/04/22 18:10:06;;;;;;;1.30;1.20;;;;;;;;;;5215798;27;20007;-95
2024/04/22 18:12:31;;;;;;;20.75;11.77;;;;;;;;;;5216571;27;20457;-96
2024/04/22 18:14:57;;;;;;;18.00;8.05;;;;;;;;;;5218375;27;20003;-87
2024/04/22 18:17:22;;;;;;;3.95;2.50;;;;;;;;;;5217453;27;20018;-92
2024/04/22 18:19:48;;;;;;;1.40;1.30;;;;;;;;;;5218381;27;20014;-90
2024/04/22 18:22:13;;;;;;;1.83;1.65;;;;;;;;;;5214349;27;20347;-88
2024/04/22 18:24:38;;;;;;;2.83;1.83;;;;;;;;;;5214780;27;20051;-88
2024/04/22 18:27:04;;;;;;;1.65;1.55;;;;;;;;;;5215000;27;20000;-91
2024/04/22 18:29:30;;;;;;;1.52;1.45;;;;;;;;;;5214884;27;20003;-92
2024/04/22 18:31:55;;;;;;;2.25;1.90;;;;;;;;;;5214742;27;20011;-91
2024/04/22 18:34:20;;;;;;;3.38;2.53;;;;;;;;;;5214935;27;20004;-93
2024/04/22 18:36:46;;;;;;;1.88;1.77;;;;;;;;;;5214590;27;20014;-91
2024/04/22 18:39:11;;;;;;;1.75;1.65;;;;;;;;;;5214556;27;20011;-92
2024/04/22 18:41:37;;;;;;;1.45;1.35;;;;;;;;;;5214676;27;20011;-93
2024/04/22 18:44:05;;;;;;;2.33;1.83;;;;;;;;;;5213826;27;20008;-86
2024/04/22 18:46:30;;;;;;;2.08;1.90;;;;;;;;;;5212229;27;20324;-86
2024/04/22 18:48:56;;;;;;;1.70;1.60;;;;;;;;;;5214303;27;20010;-86
2024/04/22 18:51:23;;;;;;;1.58;1.48;;;;;;;;;;5214277;27;20012;-95
2024/04/22 18:53:49;;;;;;;2.20;2.00;;;;;;;;;;5214111;27;20003;-84
2024/04/22 18:56:14;;;;;;;2.60;2.10;;;;;;;;;;5214200;27;20000;-89
2024/04/22 18:58:40;;;;;;;1.73;1.63;;;;;;;;;;5242314;27;20430;-87
2024/04/22 19:01:05;;;;;;;2.20;2.00;;;;;;;;;;5218126;27;20078;-87
2024/04/22 19:03:31;;;;;;;2.50;2.25;;;;;;;;;;5247931;27;19999;-87
2024/04/22 19:05:56;;;;;;;6.63;2.72;;;;;;;;;;5247313;27;20401;-87
2024/04/22 19:08:22;;;;;;;2.55;2.35;;;;;;;;;;5247000;27;20019;-88
2024/04/22 19:10:47;;;;;;;2.58;2.00;;;;;;;;;;5230328;27;20015;-92
2024/04/22 19:13:12;;;;;;;2.30;2.10;;;;;;;;;;5239408;27;20004;-85
2024/04/22 19:15:38;;;;;;;2.15;1.95;;;;;;;;;;5214007;27;20004;-91
2024/04/22 19:18:03;;;;;;;2.20;2.00;;;;;;;;;;5229069;27;20021;-93
2024/04/22 19:20:29;;;;;;;2.28;2.08;;;;;;;;;;5248218;27;20011;-92
2024/04/22 19:22:55;;;;;;;2.80;1.70;;;;;;;;;;5247630;27;20014;-93
2024/04/22 19:25:21;;;;;;;2.30;2.10;;;;;;;;;;5247572;27;20070;-94
2024/04/22 19:27:46;;;;;;;3.78;3.42;;;;;;;;;;5216240;27;20031;-93
2024/04/22 19:30:11;;;;;;;2.38;1.80;;;;;;;;;;5184392;27;20000;-83
2024/04/22 19:32:37;;;;;;;2.00;1.80;;;;;;;;;;5213639;27;20010;-86
2024/04/22 19:35:03;;;;;;;1.90;1.67;;;;;;;;;;5184782;27;19996;-81
2024/04/22 19:37:28;;;;;;;2.10;1.95;;;;;;;;;;5213653;27;20533;-90
2024/04/22 19:39:54;;;;;;;2.00;1.85;;;;;;;;;;5213631;27;19999;-87
2024/04/22 19:42:19;;;;;;;1.75;1.63;;;;;;;;;;5185086;27;20436;-91
2024/04/22 19:44:45;;;;;;;2.35;2.10;;;;;;;;;;5264127;27;20009;-91
2024/04/22 19:47:10;;;;;;;2.03;1.90;;;;;;;;;;5281198;27;20002;-95
2024/04/22 19:49:35;;;;;;;2.00;1.80;;;;;;;;;;5281146;27;19994;-94
2024/04/22 19:52:01;;;;;;;2.22;2.00;;;;;;;;;;5280795;27;20406;-93
2024/04/22 19:54:26;;;;;;;1.73;1.55;;;;;;;;;;5281269;27;20388;-93
2024/04/22 19:56:52;;;;;;;1.83;1.73;;;;;;;;;;5263796;27;20409;-93
2024/04/22 19:59:17;;;;;;;2.17;1.98;;;;;;;;;;5247432;27;20005;-89
2024/04/22 20:01:43;;;;;;;1.90;1.80;;;;;;;;;;5245977;27;19999;-92
2024/04/22 20:04:09;;;;;;;2.05;1.85;;;;;;;;;;5247630;27;20026;-91
2024/04/22 20:06:35;;;;;;;4.32;2.10;;;;;;;;;;5218162;27;20438;-91
2024/04/22 20:09:00;;;;;;;2.05;1.58;;;;;;;;;;5246731;27;20322;-91
2024/04/22 20:11:25;;;;;;;2.90;1.95;;;;;;;;;;5246916;27;20448;-93
2024/04/22 20:13:52;;;;;;;2.42;2.03;;;;;;;;;;5247451;27;20001;-93
2024/04/22 20:16:47;;;;;;;2.03;1.80;;;;;;;;;;5247061;27;19999;-93
2024/04/22 20:19:17;;;;;;;1.65;1.55;;;;;;;;;;5246912;27;20034;-91
2024/04/22 20:21:43;;;;;;;1.35;1.20;;;;;;;;;;5247023;27;20015;-91
2024/04/22 20:24:08;;;;;;;1.58;1.30;;;;;;;;;;5246730;27;19999;-94
2024/04/22 20:26:34;;;;;;;1.15;1.15;;;;;;;;;;5247305;27;20003;-93
2024/04/22 20:28:59;;;;;;;1.70;1.60;;;;;;;;;;5246586;27;20074;-85
2024/04/22 20:31:25;;;;;;;1.20;1.13;;;;;;;;;;5246894;27;20003;-93
2024/04/22 20:33:52;;;;;;;1.92;1.30;;;;;;;;;;5246909;27;20003;-94
2024/04/22 20:36:20;;;;;;;1.52;0.98;;;;;;;;;;5247069;27;20015;-94
2024/04/22 20:38:45;;;;;;;1.92;1.20;;;;;;;;;;5246849;27;20003;-94
2024/04/22 20:41:11;;;;;;;1.83;0.93;;;;;;;;;;5246648;27;19999;-86
2024/04/22 20:43:37;;;;;;;1.30;1.10;;;;;;;;;;5246344;27;20444;-87
2024/04/22 20:46:03;;;;;;;1.20;1.10;;;;;;;;;;5246479;27;20009;-93
2024/04/22 20:48:33;;;;;;;2.85;1.20;;;;;;;;;;5246688;27;19999;-94
2024/04/22 20:51:00;;;;;;;1.00;1.00;;;;;;;;;;5246196;27;20006;-85
2024/04/22 20:53:26;;;;;;;1.30;1.20;;;;;;;;;;5245923;27;20014;-86
2024/04/22 20:55:53;;;;;;;1.15;1.05;;;;;;;;;;5246020;27;20014;-84
2024/04/22 20:58:20;;;;;;;1.40;1.23;;;;;;;;;;5245883;27;20039;-86
2024/04/22 21:00:59;;;;;;;1.92;1.10;;;;;;;;;;5246217;27;20323;-88
2024/04/22 21:03:25;;;;;;;0.90;0.90;;;;;;;;;;5245981;27;20042;-88
2024/04/22 21:05:58;;;;;;;1.30;1.20;;;;;;;;;;5245924;27;20011;-85
2024/04/22 21:08:27;;;;;;;1.10;1.10;;;;;;;;;;5245804;27;20015;-88
2024/04/22 21:10:54;;;;;;;1.30;1.20;;;;;;;;;;5246275;27;20003;-86
2024/04/22 21:13:20;;;;;;;1.17;1.17;;;;;;;;;;5245858;27;20031;-85
2024/04/22 21:15:46;;;;;;;2.38;1.20;;;;;;;;;;5245868;27;20010;-90
2024/04/22 21:18:12;;;;;;;2.53;1.55;;;;;;;;;;5245817;27;20014;-91
2024/04/22 21:20:37;;;;;;;1.30;1.20;;;;;;;;;;5246230;27;20003;-93
2024/04/22 21:23:03;;;;;;;2.35;1.33;;;;;;;;;;5248557;27;19999;-93
2024/04/22 21:25:28;;;;;;;0.90;0.90;;;;;;;;;;5249195;27;20022;-85
2024/04/22 21:27:54;;;;;;;0.90;0.90;;;;;;;;;;5248618;27;20003;-87
2024/04/22 21:30:20;;;;;;;0.82;0.82;;;;;;;;;;5249076;27;20003;-93
2024/04/22 21:32:49;;;;;;;1.77;1.10;;;;;;;;;;5249911;27;20003;-93
2024/04/22 21:35:14;;;;;;;1.60;1.13;;;;;;;;;;5249151;27;20456;-92
2024/04/22 21:37:40;;;;;;;1.00;1.00;;;;;;;;;;5249057;27;20215;-92
2024/04/22 21:40:05;;;;;;;1.20;1.10;;;;;;;;;;5247329;27;20481;-85
2024/04/22 21:42:32;;;;;;;1.58;1.02;;;;;;;;;;5249537;27;19999;-91
2024/04/22 21:44:58;;;;;;;1.23;1.13;;;;;;;;;;5247569;27;20400;-87
2024/04/22 21:47:23;;;;;;;1.15;1.15;;;;;;;;;;5248642;27;20003;-92
2024/04/22 21:49:49;;;;;;;1.30;1.20;;;;;;;;;;5248699;27;20462;-92
2024/04/22 21:52:14;;;;;;;1.10;1.00;;;;;;;;;;5250164;27;20454;-93
2024/04/22 21:54:39;;;;;;;1.33;1.23;;;;;;;;;;5248801;27;20031;-92
2024/04/22 21:57:43;;;;;;;1.20;1.10;;;;;;;;;;5248782;27;20453;-91
2024/04/22 22:00:45;;;;;;;0.90;0.90;;;;;;;;;;5249086;27;20014;-92
2024/04/22 22:03:48;;;;;;;1.15;1.10;;;;;;;;;;5248578;27;20077;-92
2024/04/22 22:06:51;;;;;;;1.13;1.00;;;;;;;;;;5248702;27;20035;-89
2024/04/22 22:09:23;;;;;;;1.00;1.00;;;;;;;;;;5248623;27;20003;-93
2024/04/22 22:11:49;;;;;;;1.15;1.15;;;;;;;;;;5251440;27;20003;-94
2024/04/22 22:14:14;;;;;;;1.05;1.02;;;;;;;;;;5256744;27;20009;-91
2024/04/22 22:16:39;;;;;;;1.10;1.10;;;;;;;;;;5255131;27;20010;-93
2024/04/22 22:19:05;;;;;;;1.25;0.98;;;;;;;;;;5255381;27;20073;-93
2024/04/22 22:21:30;;;;;;;1.73;1.10;;;;;;;;;;5255863;27;20018;-93
2024/04/22 22:23:56;;;;;;;1.00;1.00;;;;;;;;;;5256407;27;20003;-91
2024/04/22 22:26:21;;;;;;;1.10;1.10;;;;;;;;;;5254172;27;20334;-92
2024/04/22 22:28:46;;;;;;;1.02;0.90;;;;;;;;;;5249324;27;20123;-92
2024/04/22 22:31:12;;;;;;;0.85;0.85;;;;;;;;;;5249165;27;20003;-93
2024/04/22 22:33:37;;;;;;;1.00;1.00;;;;;;;;;;5249766;27;20072;-91
2024/04/22 22:36:03;;;;;;;1.40;1.30;;;;;;;;;;5248707;27;20003;-90
2024/04/22 22:38:28;;;;;;;1.85;1.10;;;;;;;;;;5248636;27;20014;-92
2024/04/22 22:40:54;;;;;;;1.20;1.13;;;;;;;;;;5248239;27;20002;-92
2024/04/22 22:43:20;;;;;;;1.27;1.13;;;;;;;;;;5247785;27;20415;-86
2024/04/22 22:45:45;;;;;;;1.45;1.10;;;;;;;;;;5246698;27;20339;-91
